Latest METARs, TAFs and NOTAMs for TJBQ


---------------------------------------------------------------------------
	(OBSERVATIONS)
TJBQ 171350Z 11003KT 10SM CLR 27/22 A3013 =
TJBQ 171250Z 10005KT 10SM CLR 26/21 A3011 =
TJBQ 171150Z 15003KT 10SM CLR 23/18 A3009 =
---------------------------------------------------------------------------
	(TERMINAL AREA FORECAST)
TJBQ 171127Z 1712/1812 14003KT P6SM SKC
    FM171400 07009KT P6SM SCT035
    FM171800 05012KT P6SM VCSH SCT030 SCT060
    FM172200 11005KT P6SM FEW040=
---------------------------------------------------------------------------
	(NOTAMS)


TJBQ 01/003 TWY A BTN TWY C AND TWY D CLSD. 02 JAN 21:09 2019
    UNTIL 30 JUN 23:59 2019. CREATED: 02 JAN 21:09 2019

TJBQ 01/004 RWY 08/26 DIST REMAINING MARKING ALL MISSING. 02
    JAN 21:06 2019 UNTIL 30 JUN 23:59 2019. CREATED: 02 JAN 21:10
    2019

TJBQ 01/006 TWY A BTN US COAST GUARD RAMP AND 500FT WEST OF TWY
    C CLSD. 02 JAN 21:51 2019 UNTIL 30 JUN 23:59 2019. CREATED:
    02 JAN 21:51 2019

TJBQ 01/022 AD AP ARFF VEHICLE U/S INDEX UNCHANGED. 22 JAN 19:45
    2019 UNTIL 30 APR 23:59 2019. CREATED: 22 JAN 19:45 2019

TJBQ 02/025 OBST TOWER LGT (ASR 1011204) 182629.30N0670848.30W
    (3.4NM SSW BQN) 867.8FT (293.0FT AGL) OUT OF SERVICE. 13
    FEB 17:06 2019 UNTIL 28 FEB 17:05 2019. CREATED: 13 FEB 17:06
    2019

TJBQ 02/028 RWY 08/26 CLSD. 19 FEB 17:00 2019 UNTIL 19 FEB 20:00
    2019. CREATED: 16 FEB 19:31 2019

TJBQ 11/007 OBST CRANE (ASN UNKNOWN) 184852N0671327W (0.367171NM
    S APCH END RWY 08) UNKNOWN (110FT AGL) FLAGGED. 05 NOV 19:47
    2018 UNTIL 28 FEB 23:59 2019. CREATED: 05 NOV 19:47 2018

TJBQ 11/048 NAV VORTAC U/S. 30 NOV 14:17 2018 UNTIL 29 MAR 20:00
    2019 ESTIMATED. CREATED: 30 NOV 14:17 2018

TJBQ 12/006 SVC AUTOMATED WX BCST SYSTEM DP UNREL. 10 DEC 18:26
    2018 UNTIL 01 MAR 23:00 2019 ESTIMATED. CREATED: 10 DEC 18:26
    2018

TJBQ 12/007 SVC AUTOMATED WX BCST SYSTEM LIGHTNING SENSOR NOT
    AVBL. 10 DEC 18:28 2018 UNTIL 01 MAR 23:00 2019 ESTIMATED.
    CREATED: 10 DEC 18:28 2018

TJBQ 12/023 OBST TOWER LGT (ASR 1060462) 182845.70N0670052.70W
    (6.6NM E BQN) 620.1FT (271.0FT AGL) OUT OF SERVICE. 22 DEC
    22:30 2018 UNTIL 22 MAR 05:00 2019. CREATED: 22 DEC 22:30
    2018

TJBQ A0003/19 TWY A BTN TWY C AND TWY D CLSD. 02 JAN 21:09 2019
    UNTIL 30 JUN 23:59 2019. CREATED: 02 JAN 21:52 2019

TJBQ A0004/19 TWY A BTN US COAST GUARD RAMP AND 500FT WEST OF
    TWY C CLSD. 02 JAN 21:51 2019 UNTIL 30 JUN 23:59 2019. CREATED:
    02 JAN 22:08 2019

TJBQ A0018/19 AP ARFF VEHICLE U/S INDEX UNCHANGED. 22 JAN 19:45
    2019 UNTIL 30 APR 23:59 2019. CREATED: 22 JAN 19:57 2019

TJBQ A0061/19 RWY 08/26 CLSD. 19 FEB 17:00 2019 UNTIL 19 FEB
    20:00 2019. CREATED: 16 FEB 19:51 2019

TJBQ A0566/18 /BQN/ VORTAC U/S. 30 NOV 14:17 2018 UNTIL 29 MAR
    20:00 2019 ESTIMATED. CREATED: 30 NOV 14:18 2018

---------------------------------------------------------------------------